Time;durP1;ratioP1;P1;durP2;ratioP2;P2;SDS_P1;SDS_P2;PMS_P1;PMS_P2;Temp;Humidity;BMP_temperature;BMP_pressure;BME280_temperature;BME280_humidity;BME280_pressure;Samples;Min_cycle;Max_cycle;Signal;HPM_P1;HPM_P2
2021/12/09 00:01:27;;;;;;;7.87;5.40;;;8.80;96.80;;;;;;4897258;29;20420;-68
2021/12/09 00:04:01;;;;;;;6.93;5.10;;;8.70;96.80;;;;;;4896927;29;20555;-68
2021/12/09 00:06:29;;;;;;;5.63;4.37;;;8.60;96.70;;;;;;4897409;29;20756;-69
2021/12/09 00:08:59;;;;;;;4.87;4.53;;;8.60;96.30;;;;;;4896857;29;20428;-83
2021/12/09 00:11:25;;;;;;;5.50;5.00;;;8.60;96.40;;;;;;4897499;29;20754;-68
2021/12/09 00:13:51;;;;;;;4.97;4.13;;;8.60;96.40;;;;;;4897202;29;20411;-69
2021/12/09 00:16:17;;;;;;;4.63;4.20;;;8.60;96.20;;;;;;4880078;29;20431;-69
2021/12/09 00:18:43;;;;;;;6.23;5.00;;;8.70;96.20;;;;;;4897459;29;20411;-69
2021/12/09 00:21:10;;;;;;;5.40;4.90;;;8.70;96.00;;;;;;4896526;29;20860;-69
2021/12/09 00:23:36;;;;;;;5.93;5.37;;;8.60;95.80;;;;;;4897153;29;20791;-69
2021/12/09 00:26:02;;;;;;;7.10;5.80;;;8.60;95.80;;;;;;4896261;29;20408;-69
2021/12/09 00:28:28;;;;;;;6.20;5.13;;;8.60;95.90;;;;;;4896713;29;20451;-68
2021/12/09 00:30:54;;;;;;;7.83;5.77;;;8.50;95.80;;;;;;4896862;29;20972;-70
2021/12/09 00:33:20;;;;;;;7.53;5.33;;;8.40;95.90;;;;;;4896458;29;20422;-69
2021/12/09 00:35:54;;;;;;;6.37;5.73;;;8.40;96.10;;;;;;4898435;29;20459;-69
2021/12/09 00:38:24;;;;;;;6.43;5.00;;;8.40;96.10;;;;;;4883209;29;20407;-69
2021/12/09 00:40:50;;;;;;;5.50;4.97;;;8.40;96.10;;;;;;4884445;29;20431;-69
2021/12/09 00:43:20;;;;;;;8.30;5.00;;;8.40;96.10;;;;;;4899784;29;20439;-69
2021/12/09 00:45:46;;;;;;;5.90;4.53;;;8.30;96.10;;;;;;4900347;29;20499;-69
2021/12/09 00:48:12;;;;;;;7.97;5.00;;;8.30;96.10;;;;;;4899652;29;20473;-69
2021/12/09 00:50:37;;;;;;;4.97;4.50;;;8.20;96.10;;;;;;4900484;29;20502;-69
2021/12/09 00:53:03;;;;;;;5.23;4.70;;;8.30;96.30;;;;;;4882898;29;20172;-69
2021/12/09 00:55:29;;;;;;;6.67;5.10;;;8.20;96.40;;;;;;4899836;29;20179;-68
2021/12/09 00:57:55;;;;;;;5.20;4.70;;;8.20;96.40;;;;;;4900111;29;20536;-69
2021/12/09 01:00:21;;;;;;;5.87;5.07;;;8.10;96.50;;;;;;4899697;29;20412;-69
2021/12/09 01:02:48;;;;;;;7.83;4.90;;;8.10;96.70;;;;;;4899957;29;20238;-69
2021/12/09 01:05:15;;;;;;;6.27;4.80;;;8.10;96.80;;;;;;4899359;29;20434;-69
2021/12/09 01:07:43;;;;;;;11.03;5.13;;;8.00;96.70;;;;;;4882973;29;20976;-69
2021/12/09 01:10:13;;;;;;;5.33;4.67;;;8.10;96.70;;;;;;4899269;29;20423;-69
2021/12/09 01:12:38;;;;;;;7.73;4.63;;;8.10;96.60;;;;;;4899307;29;20419;-69
2021/12/09 01:15:07;;;;;;;5.83;4.60;;;8.10;96.60;;;;;;4899234;29;20918;-69
2021/12/09 01:17:33;;;;;;;6.40;4.60;;;8.10;96.60;;;;;;4899768;29;20198;-69
2021/12/09 01:19:59;;;;;;;7.07;4.90;;;8.10;96.50;;;;;;4899709;29;20440;-77
2021/12/09 01:22:34;;;;;;;5.37;4.87;;;8.20;96.40;;;;;;4899674;29;20422;-69
2021/12/09 01:25:00;;;;;;;5.13;4.80;;;8.20;96.30;;;;;;4899389;29;20411;-82
2021/12/09 01:27:26;;;;;;;5.40;4.90;;;8.20;96.20;;;;;;4899538;29;20470;-70
2021/12/09 01:29:55;;;;;;;7.33;4.90;;;8.00;96.40;;;;;;4899561;29;20423;-69
2021/12/09 01:32:29;;;;;;;5.97;5.37;;;8.00;96.60;;;;;;4899016;29;20432;-69
2021/12/09 01:34:55;;;;;;;6.73;4.83;;;8.00;96.20;;;;;;4899527;29;20403;-68
2021/12/09 01:37:21;;;;;;;5.80;5.30;;;8.00;96.30;;;;;;4898871;29;20510;-69
2021/12/09 01:39:47;;;;;;;5.43;4.80;;;8.00;96.40;;;;;;4899368;29;20175;-69
2021/12/09 01:42:13;;;;;;;4.97;4.47;;;8.00;96.10;;;;;;4898751;29;20423;-69
2021/12/09 01:44:38;;;;;;;5.67;5.27;;;7.90;96.20;;;;;;4899086;29;20179;-69
2021/12/09 01:47:04;;;;;;;5.73;5.23;;;7.80;96.50;;;;;;4897600;29;20463;-69
2021/12/09 01:49:30;;;;;;;5.40;4.90;;;7.80;96.30;;;;;;4899167;29;20179;-69
2021/12/09 01:51:55;;;;;;;5.77;5.20;;;7.80;96.20;;;;;;4899168;29;20537;-68
2021/12/09 01:54:24;;;;;;;5.60;5.10;;;7.80;96.40;;;;;;4898801;29;20678;-69
2021/12/09 01:56:50;;;;;;;5.40;4.90;;;7.80;96.10;;;;;;4882314;29;20265;-68
2021/12/09 01:59:17;;;;;;;7.03;4.77;;;7.70;96.00;;;;;;4898349;29;20820;-69
2021/12/09 02:01:43;;;;;;;7.03;4.83;;;7.60;96.00;;;;;;4898758;29;20793;-69
2021/12/09 02:04:11;;;;;;;6.30;5.33;;;7.60;96.20;;;;;;4898278;29;20470;-69
2021/12/09 02:06:40;;;;;;;6.90;4.90;;;7.50;96.50;;;;;;4898540;29;20194;-69
2021/12/09 02:09:11;;;;;;;5.10;4.60;;;7.50;96.40;;;;;;4898247;29;20439;-69
2021/12/09 02:11:39;;;;;;;5.43;4.70;;;7.50;96.40;;;;;;4898925;29;20502;-69
2021/12/09 02:14:05;;;;;;;4.70;4.30;;;7.40;96.50;;;;;;4898101;29;20425;-70
2021/12/09 02:16:32;;;;;;;6.27;5.00;;;7.40;96.70;;;;;;4898811;29;20418;-69
2021/12/09 02:18:58;;;;;;;8.23;4.90;;;7.50;96.90;;;;;;4898671;29;20419;-68
2021/12/09 02:21:27;;;;;;;8.77;4.83;;;7.40;96.90;;;;;;4897864;29;20465;-68
2021/12/09 02:23:56;;;;;;;6.27;4.37;;;7.40;97.10;;;;;;4897753;29;20422;-69
2021/12/09 02:26:32;;;;;;;5.40;4.50;;;7.40;97.20;;;;;;4897438;29;20975;-69
2021/12/09 02:28:59;;;;;;;5.27;4.77;;;7.40;97.00;;;;;;4898575;29;20421;-68
2021/12/09 02:31:26;;;;;;;6.67;4.50;;;7.40;97.00;;;;;;4897750;29;20415;-69
2021/12/09 02:33:52;;;;;;;9.57;4.60;;;7.30;97.00;;;;;;4898435;29;20426;-68
2021/12/09 02:36:18;;;;;;;8.50;4.63;;;7.30;96.90;;;;;;4897842;29;20406;-69
2021/12/09 02:38:44;;;;;;;7.03;5.00;;;7.30;96.70;;;;;;4898348;29;20179;-69
2021/12/09 02:41:17;;;;;;;5.63;5.03;;;7.30;96.90;;;;;;4897998;29;20421;-69
2021/12/09 02:43:55;;;;;;;6.50;4.93;;;7.20;96.80;;;;;;4898443;29;20406;-68
2021/12/09 02:46:23;;;;;;;6.50;5.23;;;7.10;96.70;;;;;;4897708;29;20397;-69
2021/12/09 02:48:50;;;;;;;6.07;5.47;;;7.10;96.60;;;;;;4898112;29;20474;-68
2021/12/09 02:51:16;;;;;;;9.13;5.30;;;7.00;96.60;;;;;;4897562;29;20414;-69
2021/12/09 02:53:43;;;;;;;7.83;5.63;;;7.00;96.80;;;;;;4898437;29;20854;-68
2021/12/09 02:56:10;;;;;;;8.47;5.10;;;7.00;96.90;;;;;;4897434;29;20492;-69
2021/12/09 02:58:36;;;;;;;5.17;4.67;;;6.90;97.10;;;;;;4897787;29;20481;-69
2021/12/09 03:01:33;;;;;;;5.20;4.80;;;6.90;96.80;;;;;;4898036;29;20561;-69
2021/12/09 03:04:02;;;;;;;7.53;5.53;;;6.90;96.90;;;;;;4883605;29;20473;-69
2021/12/09 03:06:37;;;;;;;6.10;5.40;;;6.80;96.80;;;;;;4896960;29;20933;-69
2021/12/09 03:09:08;;;;;;;5.83;5.20;;;6.70;97.00;;;;;;4881293;29;20965;-69
2021/12/09 03:11:34;;;;;;;5.43;4.83;;;6.70;97.20;;;;;;4897924;29;20398;-69
2021/12/09 03:14:00;;;;;;;7.53;5.73;;;6.70;97.40;;;;;;4897834;29;20410;-69
2021/12/09 03:16:27;;;;;;;7.20;5.20;;;6.70;97.60;;;;;;4897250;29;20559;-69
2021/12/09 03:18:56;;;;;;;5.63;5.03;;;6.80;97.80;;;;;;4897774;29;20526;-69
2021/12/09 03:21:34;;;;;;;5.70;4.70;;;6.80;98.00;;;;;;4897206;29;20417;-70
2021/12/09 03:24:02;;;;;;;6.77;4.40;;;6.80;97.50;;;;;;4897551;29;20398;-69
2021/12/09 03:26:31;;;;;;;7.90;5.33;;;6.70;97.20;;;;;;4880304;29;20414;-69
2021/12/09 03:29:01;;;;;;;5.13;4.50;;;6.70;97.30;;;;;;4897755;29;20426;-68
2021/12/09 03:31:27;;;;;;;5.70;5.17;;;6.30;97.30;;;;;;4896902;29;20824;-69
2021/12/09 03:33:53;;;;;;;5.83;5.23;;;6.50;97.40;;;;;;4897647;29;20496;-69
2021/12/09 03:36:19;;;;;;;5.33;4.93;;;6.60;97.60;;;;;;4897046;29;20500;-69
2021/12/09 03:38:45;;;;;;;5.80;4.77;;;6.60;97.50;;;;;;4897593;29;20406;-68
2021/12/09 03:41:11;;;;;;;7.00;5.10;;;6.60;97.30;;;;;;4896928;29;20492;-70
2021/12/09 03:43:38;;;;;;;6.60;5.50;;;6.50;97.20;;;;;;4897540;29;20504;-69
2021/12/09 03:46:04;;;;;;;6.07;5.57;;;6.50;97.30;;;;;;4897592;29;20239;-69
2021/12/09 03:48:32;;;;;;;5.83;5.23;;;6.50;97.50;;;;;;4896836;29;20858;-69
2021/12/09 03:50:57;;;;;;;4.87;4.47;;;6.40;97.80;;;;;;4897550;29;20408;-69
2021/12/09 03:53:24;;;;;;;6.20;5.70;;;6.40;98.10;;;;;;4897175;29;20427;-69
2021/12/09 03:55:50;;;;;;;6.27;4.60;;;6.40;98.10;;;;;;4897448;29;20238;-69
2021/12/09 03:58:17;;;;;;;5.60;5.10;;;6.40;97.90;;;;;;4896852;29;20738;-69
2021/12/09 04:00:43;;;;;;;7.73;4.70;;;6.30;98.10;;;;;;4897418;29;20554;-69
2021/12/09 04:03:10;;;;;;;4.53;4.13;;;6.40;97.40;;;;;;4879769;29;20464;-80
2021/12/09 04:05:37;;;;;;;6.00;5.43;;;6.30;97.40;;;;;;4897495;29;20761;-69
2021/12/09 04:08:03;;;;;;;5.00;4.60;;;6.30;97.60;;;;;;4897000;29;20777;-69
2021/12/09 04:10:33;;;;;;;5.93;5.00;;;6.20;97.70;;;;;;4897725;29;21068;-68
2021/12/09 04:12:59;;;;;;;6.03;4.43;;;6.20;97.70;;;;;;4900998;29;20421;-68
2021/12/09 04:15:26;;;;;;;5.57;4.70;;;6.20;97.70;;;;;;4900395;29;20413;-68
2021/12/09 04:17:51;;;;;;;8.80;5.80;;;6.20;97.80;;;;;;4883889;29;20564;-68
2021/12/09 04:20:17;;;;;;;5.63;5.10;;;6.10;97.80;;;;;;4900558;29;20868;-69
2021/12/09 04:22:48;;;;;;;7.30;5.10;;;6.10;97.40;;;;;;4900833;29;20503;-68
2021/12/09 04:25:16;;;;;;;5.57;5.07;;;6.00;97.70;;;;;;4900309;29;20409;-69
2021/12/09 04:27:42;;;;;;;5.50;4.97;;;6.00;97.60;;;;;;4900651;29;20790;-68
2021/12/09 04:30:09;;;;;;;5.90;5.40;;;6.00;97.60;;;;;;4900669;29;20414;-69
2021/12/09 04:32:35;;;;;;;5.80;5.30;;;6.00;97.90;;;;;;4883154;29;20907;-69
2021/12/09 04:35:00;;;;;;;9.20;5.93;;;6.00;98.20;;;;;;4900608;29;20472;-68
2021/12/09 04:37:26;;;;;;;5.87;5.30;;;6.10;98.40;;;;;;4900014;29;20176;-68
2021/12/09 04:39:52;;;;;;;6.57;4.90;;;6.10;98.40;;;;;;4900634;29;20255;-68
2021/12/09 04:42:18;;;;;;;6.23;5.20;;;6.10;98.30;;;;;;4899915;29;20184;-69
2021/12/09 04:44:44;;;;;;;5.80;5.20;;;6.10;98.20;;;;;;4900439;29;20187;-68
2021/12/09 04:47:10;;;;;;;5.97;5.43;;;6.10;98.30;;;;;;4900343;29;20457;-68
2021/12/09 04:49:36;;;;;;;9.60;5.57;;;6.20;98.50;;;;;;4900106;29;20409;-69
2021/12/09 04:52:04;;;;;;;5.87;5.20;;;6.10;98.40;;;;;;4900403;29;20406;-68
2021/12/09 04:54:29;;;;;;;6.28;5.68;;;6.20;98.10;;;;;;4899682;29;20185;-68
2021/12/09 04:56:55;;;;;;;8.07;5.50;;;6.10;97.90;;;;;;4900313;29;20176;-68
2021/12/09 04:59:21;;;;;;;7.10;5.27;;;6.10;98.20;;;;;;4899352;29;20408;-69
2021/12/09 05:01:49;;;;;;;5.97;5.37;;;6.10;97.90;;;;;;4899942;29;20168;-69
2021/12/09 05:04:16;;;;;;;7.07;6.43;;;6.10;98.00;;;;;;4899439;29;20498;-69
2021/12/09 05:06:42;;;;;;;8.27;6.53;;;6.10;98.00;;;;;;4900238;29;20623;-68
2021/12/09 05:09:16;;;;;;;9.00;6.40;;;6.10;98.00;;;;;;4899974;29;20445;-68
2021/12/09 05:14:08;;;;;;;7.00;6.30;;;6.00;97.90;;;;;;4899962;29;20470;-67
2021/12/09 05:16:33;;;;;;;10.27;6.70;;;5.90;97.90;;;;;;4899331;29;20454;-68
2021/12/09 05:19:00;;;;;;;12.43;6.93;;;5.90;97.80;;;;;;4899937;29;20203;-67
2021/12/09 05:21:37;;;;;;;8.98;6.85;;;5.90;97.80;;;;;;4899062;29;20418;-68
2021/12/09 05:24:04;;;;;;;6.07;5.50;;;5.80;97.90;;;;;;4899867;29;20192;-67
2021/12/09 05:26:36;;;;;;;6.07;5.57;;;5.80;98.00;;;;;;4899080;29;20420;-67
2021/12/09 05:29:02;;;;;;;6.23;5.63;;;5.80;98.30;;;;;;4899702;29;20446;-68
2021/12/09 05:34:15;;;;;;;6.47;5.15;;;5.80;98.40;;;;;;4899373;29;20499;-67
2021/12/09 05:36:41;;;;;;;6.10;5.50;;;5.80;98.40;;;;;;4899252;29;20179;-67
2021/12/09 05:39:09;;;;;;;5.30;4.90;;;5.80;98.30;;;;;;4899497;29;20267;-67
2021/12/09 05:41:36;;;;;;;6.00;5.40;;;5.80;98.40;;;;;;4898850;29;20235;-67
2021/12/09 05:44:04;;;;;;;6.53;4.73;;;5.80;98.20;;;;;;4899438;29;20617;-67
2021/12/09 05:46:30;;;;;;;6.25;5.65;;;5.80;98.10;;;;;;4898784;29;20428;-68
2021/12/09 05:48:56;;;;;;;5.33;4.93;;;5.80;98.10;;;;;;4899195;29;20212;-67
2021/12/09 05:51:23;;;;;;;7.83;5.10;;;5.70;98.00;;;;;;4898691;29;20884;-68
2021/12/09 05:53:49;;;;;;;6.57;5.87;;;5.80;98.00;;;;;;4899464;29;20222;-67
2021/12/09 05:56:15;;;;;;;5.30;4.60;;;5.70;97.90;;;;;;4899211;29;20451;-67
2021/12/09 05:58:41;;;;;;;6.63;4.40;;;5.70;98.20;;;;;;4899001;29;20277;-67
2021/12/09 06:01:07;;;;;;;8.83;5.90;;;5.70;98.40;;;;;;4898923;29;20987;-67
2021/12/09 06:03:33;;;;;;;6.40;5.60;;;5.70;98.60;;;;;;4898378;29;20239;-68
2021/12/09 06:06:00;;;;;;;8.30;6.07;;;5.70;98.90;;;;;;4898940;29;20274;-67
2021/12/09 06:08:26;;;;;;;8.23;6.35;;;5.90;99.50;;;;;;4898160;29;20215;-68
2021/12/09 06:10:53;;;;;;;6.30;5.72;;;5.80;99.60;;;;;;4898823;29;20184;-67
2021/12/09 06:13:21;;;;;;;6.23;5.63;;;5.80;99.90;;;;;;4898172;29;20185;-68
2021/12/09 06:15:48;;;;;;;5.83;5.10;;;5.90;99.60;;;;;;4898645;29;20873;-68
2021/12/09 06:18:13;;;;;;;7.03;5.53;;;6.00;99.50;;;;;;4898706;29;20815;-67
2021/12/09 06:20:39;;;;;;;7.43;5.83;;;5.60;99.10;;;;;;4898010;29;20424;-67
2021/12/09 06:23:06;;;;;;;5.83;4.93;;;6.00;98.90;;;;;;4898564;29;20413;-69
2021/12/09 06:25:31;;;;;;;10.13;6.30;;;5.90;98.90;;;;;;4898006;29;20502;-67
2021/12/09 06:27:57;;;;;;;9.37;6.00;;;6.00;99.30;;;;;;4898451;29;20286;-67
2021/12/09 06:30:24;;;;;;;7.53;6.13;;;6.00;99.60;;;;;;4897547;29;20185;-67
2021/12/09 06:32:50;;;;;;;6.43;5.50;;;6.10;99.80;;;;;;4896325;29;20461;-67
2021/12/09 06:35:17;;;;;;;7.22;6.55;;;6.20;99.90;;;;;;4897557;29;20421;-68
2021/12/09 06:37:45;;;;;;;6.37;5.80;;;6.20;99.60;;;;;;4897095;29;20179;-68
2021/12/09 06:40:14;;;;;;;10.53;5.97;;;6.20;99.10;;;;;;4898110;29;20500;-67
2021/12/09 06:42:41;;;;;;;13.13;5.77;;;6.30;99.00;;;;;;4880187;29;20413;-67
2021/12/09 06:45:09;;;;;;;6.20;5.60;;;6.30;98.80;;;;;;4897537;29;20903;-67
2021/12/09 06:47:34;;;;;;;8.50;5.37;;;6.20;98.70;;;;;;4896739;29;20547;-68
2021/12/09 06:50:00;;;;;;;7.43;6.50;;;6.30;98.60;;;;;;4897736;29;20557;-67
2021/12/09 06:52:26;;;;;;;10.10;6.43;;;6.30;98.90;;;;;;4896909;29;20413;-67
2021/12/09 06:54:52;;;;;;;7.40;6.70;;;6.30;98.80;;;;;;4908899;29;20192;-69
2021/12/09 06:57:17;;;;;;;7.40;6.70;;;6.20;98.20;;;;;;4898038;29;20181;-70
2021/12/09 06:59:43;;;;;;;12.00;7.40;;;6.10;97.70;;;;;;4897342;29;20628;-69
2021/12/09 07:02:09;;;;;;;8.20;6.63;;;6.10;97.80;;;;;;4897161;29;20192;-69
2021/12/09 07:04:35;;;;;;;7.13;6.47;;;6.10;98.10;;;;;;4897349;29;20496;-69
2021/12/09 07:07:01;;;;;;;9.23;7.63;;;6.00;98.20;;;;;;4897818;29;20964;-69
2021/12/09 07:09:29;;;;;;;9.77;6.55;;;6.00;98.50;;;;;;4897270;29;20201;-69
2021/12/09 07:11:56;;;;;;;7.33;6.07;;;6.00;97.80;;;;;;4897611;29;20263;-70
2021/12/09 07:14:22;;;;;;;9.63;6.10;;;5.90;97.70;;;;;;4896098;29;20911;-70
2021/12/09 07:16:48;;;;;;;8.63;7.22;;;5.90;97.60;;;;;;4897618;29;20779;-69
2021/12/09 07:19:14;;;;;;;7.10;6.40;;;5.80;97.50;;;;;;4902520;29;20210;-69
2021/12/09 07:21:40;;;;;;;13.03;7.53;;;5.80;97.40;;;;;;4896899;29;20250;-69
2021/12/09 07:24:06;;;;;;;9.25;6.95;;;5.70;97.40;;;;;;4897144;29;20403;-69
2021/12/09 07:26:32;;;;;;;7.00;6.40;;;5.70;97.80;;;;;;4897062;29;20263;-69
2021/12/09 07:28:58;;;;;;;9.15;6.65;;;5.60;97.80;;;;;;4897435;29;20474;-69
2021/12/09 07:31:25;;;;;;;7.40;6.30;;;5.60;97.70;;;;;;4896824;29;20193;-70
2021/12/09 07:33:52;;;;;;;8.38;6.40;;;5.60;97.80;;;;;;4897242;29;20921;-69
2021/12/09 07:36:18;;;;;;;8.75;6.32;;;5.80;97.90;;;;;;4897051;29;20518;-69
2021/12/09 07:38:46;;;;;;;10.25;5.75;;;5.50;97.90;;;;;;4896533;29;20195;-69
2021/12/09 07:41:15;;;;;;;8.40;7.17;;;5.60;98.30;;;;;;4897783;29;20194;-69
2021/12/09 07:43:41;;;;;;;7.05;6.32;;;5.50;98.40;;;;;;4896663;29;20435;-69
2021/12/09 07:46:07;;;;;;;6.90;6.20;;;5.50;98.80;;;;;;4899571;29;20180;-69
2021/12/09 07:48:33;;;;;;;7.50;5.53;;;5.50;98.40;;;;;;4900805;29;20546;-69
2021/12/09 07:50:59;;;;;;;7.40;5.60;;;5.40;98.40;;;;;;4901532;29;20194;-69
2021/12/09 07:53:25;;;;;;;7.10;5.30;;;5.40;98.50;;;;;;4900385;29;20190;-69
2021/12/09 07:55:53;;;;;;;9.57;4.75;;;5.40;98.60;;;;;;4901227;29;20183;-69
2021/12/09 07:58:18;;;;;;;7.43;5.35;;;5.40;98.90;;;;;;4900956;29;20184;-69
2021/12/09 08:00:45;;;;;;;6.80;4.90;;;5.50;99.10;;;;;;4900519;29;20198;-69
2021/12/09 08:03:11;;;;;;;5.40;4.90;;;5.50;99.10;;;;;;4883730;29;20576;-69
2021/12/09 08:05:41;;;;;;;8.65;5.43;;;5.50;99.40;;;;;;4919074;29;20428;-69
2021/12/09 08:08:07;;;;;;;6.43;5.40;;;5.60;99.70;;;;;;4920109;29;20217;-71
2021/12/09 08:10:34;;;;;;;6.97;5.63;;;5.60;99.90;;;;;;4919254;29;20190;-70
2021/12/09 08:13:00;;;;;;;4.65;4.20;;;5.70;99.80;;;;;;4919813;29;20447;-68
2021/12/09 08:15:38;;;;;;;6.50;5.90;;;5.70;99.50;;;;;;4900287;29;20619;-74
2021/12/09 08:18:26;;;;;;;8.30;7.60;;;5.90;99.90;;;;;;4900398;29;20292;-75
2021/12/09 08:20:57;;;;;;;7.03;6.50;;;6.80;99.90;;;;;;4882891;29;20930;-74
2021/12/09 08:23:24;;;;;;;6.23;5.73;;;7.70;99.90;;;;;;4899974;29;20829;-74
2021/12/09 08:25:51;;;;;;;6.97;6.47;;;8.50;99.90;;;;;;4913836;29;20451;-73
2021/12/09 08:28:17;;;;;;;7.67;6.97;;;9.10;99.30;;;;;;4900078;29;20494;-73
2021/12/09 08:30:43;;;;;;;7.47;6.60;;;9.30;96.70;;;;;;4898952;29;20507;-74
2021/12/09 08:33:09;;;;;;;7.17;6.43;;;9.90;97.70;;;;;;4900457;29;20431;-73
2021/12/09 08:35:36;;;;;;;7.53;6.73;;;10.50;95.90;;;;;;4899445;29;20419;-73
2021/12/09 08:38:06;;;;;;;6.80;6.20;;;10.90;94.30;;;;;;4899957;29;21001;-73
2021/12/09 08:40:33;;;;;;;10.17;6.33;;;11.30;93.20;;;;;;4899992;29;20494;-73
2021/12/09 08:42:59;;;;;;;7.10;6.40;;;11.40;91.90;;;;;;4883764;29;20420;-73
2021/12/09 08:45:25;;;;;;;7.17;6.00;;;11.80;93.10;;;;;;4900364;29;20426;-73
2021/12/09 08:47:51;;;;;;;6.20;5.60;;;12.20;93.10;;;;;;4883635;29;20479;-74
2021/12/09 08:50:21;;;;;;;5.97;5.57;;;12.70;91.50;;;;;;4900056;29;20429;-76
2021/12/09 08:52:50;;;;;;;9.57;6.30;;;13.00;87.60;;;;;;4899465;29;20497;-72
2021/12/09 08:55:17;;;;;;;5.63;5.13;;;13.50;91.70;;;;;;4900075;29;20411;-73
2021/12/09 08:57:43;;;;;;;5.03;4.73;;;13.80;84.00;;;;;;4898450;29;20503;-72
2021/12/09 09:00:12;;;;;;;7.03;5.33;;;14.00;78.70;;;;;;4899086;29;20427;-74
2021/12/09 09:02:41;;;;;;;6.03;5.20;;;14.40;77.50;;;;;;4899289;29;20422;-73
2021/12/09 09:05:11;;;;;;;5.17;4.67;;;14.80;75.50;;;;;;4900014;29;20434;-73
2021/12/09 09:07:48;;;;;;;7.43;5.57;;;15.10;73.40;;;;;;4882790;29;20467;-73
2021/12/09 09:10:17;;;;;;;8.27;5.83;;;15.40;71.40;;;;;;4899719;29;20423;-73
2021/12/09 09:12:43;;;;;;;4.97;4.40;;;15.80;69.60;;;;;;4899250;29;20502;-73
2021/12/09 09:15:12;;;;;;;5.20;4.80;;;16.10;68.40;;;;;;4899927;29;20435;-73
2021/12/09 09:17:38;;;;;;;5.73;5.27;;;16.40;66.90;;;;;;4898861;29;20916;-73
2021/12/09 09:20:06;;;;;;;6.30;5.70;;;16.60;65.90;;;;;;4899804;29;20412;-73
2021/12/09 09:22:32;;;;;;;5.67;4.70;;;16.60;64.40;;;;;;4899358;29;20246;-73
2021/12/09 09:24:59;;;;;;;5.83;5.23;;;16.90;63.70;;;;;;4899566;29;20948;-73
2021/12/09 09:27:25;;;;;;;5.33;4.83;;;16.80;62.00;;;;;;4899425;29;20955;-73
2021/12/09 09:29:50;;;;;;;6.40;4.63;;;16.20;62.80;;;;;;4882214;29;20412;-73
2021/12/09 09:32:16;;;;;;;5.87;4.53;;;15.90;63.50;;;;;;4899250;29;20186;-72
2021/12/09 09:34:42;;;;;;;6.97;5.70;;;15.40;63.90;;;;;;4882004;29;20182;-73
2021/12/09 09:37:08;;;;;;;5.87;5.47;;;15.00;66.10;;;;;;4899523;29;20654;-73
2021/12/09 09:39:34;;;;;;;4.90;4.50;;;14.70;67.30;;;;;;4898926;29;20856;-73
2021/12/09 09:44:49;;;;;;;5.60;4.73;;;14.80;68.70;;;;;;4898837;29;20457;-73
2021/12/09 09:47:16;;;;;;;9.50;4.90;;;15.20;68.60;;;;;;4899337;29;20450;-73
2021/12/09 09:49:43;;;;;;;5.30;4.80;;;15.60;67.10;;;;;;4898684;29;20419;-73
2021/12/09 09:52:10;;;;;;;5.73;5.23;;;16.10;66.50;;;;;;4899103;29;20408;-74
2021/12/09 09:54:37;;;;;;;7.53;6.30;;;16.90;64.40;;;;;;4898683;29;20416;-73
2021/12/09 09:57:05;;;;;;;5.03;4.53;;;17.40;61.10;;;;;;4899072;29;20473;-72
2021/12/09 09:59:31;;;;;;;5.43;4.77;;;17.90;59.90;;;;;;4898489;29;20407;-74
2021/12/09 10:01:57;;;;;;;5.10;4.70;;;18.00;58.40;;;;;;4866032;29;20435;-73
2021/12/09 10:04:36;;;;;;;6.10;5.17;;;17.50;58.70;;;;;;4898247;29;20507;-73
2021/12/09 10:07:04;;;;;;;4.93;3.90;;;17.10;59.10;;;;;;4881726;29;20173;-72
2021/12/09 10:09:30;;;;;;;7.07;5.13;;;16.40;59.60;;;;;;4897734;29;20418;-73
2021/12/09 10:11:56;;;;;;;6.40;5.80;;;15.70;61.80;;;;;;4897597;29;20911;-72
2021/12/09 10:14:24;;;;;;;7.33;5.70;;;14.50;64.10;;;;;;4898354;29;20517;-73
2021/12/09 10:17:12;;;;;;;8.93;5.30;;;13.60;67.50;;;;;;4881076;29;20261;-73
2021/12/09 10:19:49;;;;;;;6.27;4.93;;;12.60;74.60;;;;;;4897547;29;20429;-73
2021/12/09 10:22:20;;;;;;;6.57;5.20;;;12.40;77.10;;;;;;4898366;29;20419;-73
2021/12/09 10:24:49;;;;;;;9.43;6.67;;;12.20;77.60;;;;;;4897385;29;20434;-73
2021/12/09 10:27:22;;;;;;;6.47;5.97;;;12.60;79.90;;;;;;4881647;29;20457;-73
2021/12/09 10:29:48;;;;;;;4.80;4.30;;;13.10;78.80;;;;;;4897643;29;20412;-73
2021/12/09 10:32:23;;;;;;;5.50;5.03;;;14.10;76.60;;;;;;4898505;29;20474;-73
2021/12/09 10:34:49;;;;;;;5.83;4.27;;;15.00;71.60;;;;;;4897589;29;20511;-73
2021/12/09 10:37:26;;;;;;;6.00;5.20;;;15.40;69.50;;;;;;4898083;29;20434;-73
2021/12/09 10:39:55;;;;;;;5.40;4.90;;;15.50;68.90;;;;;;4897590;29;20695;-73
2021/12/09 10:42:44;;;;;;;5.93;4.90;;;15.40;70.70;;;;;;4898290;29;20470;-73
2021/12/09 10:45:14;;;;;;;6.07;5.27;;;15.20;68.30;;;;;;4897407;29;20433;-73
2021/12/09 10:48:05;;;;;;;6.10;4.53;;;14.90;69.00;;;;;;4897134;29;20469;-73
2021/12/09 10:50:53;;;;;;;8.40;4.80;;;14.50;69.70;;;;;;4897955;29;20431;-73
2021/12/09 10:55:53;;;;;;;5.17;4.70;;;14.00;71.90;;;;;;4897413;29;20938;-74
2021/12/09 10:58:22;;;;;;;8.10;5.10;;;13.90;72.60;;;;;;4897855;29;20425;-73
2021/12/09 11:00:59;;;;;;;6.50;5.10;;;13.70;73.20;;;;;;4880526;29;20447;-73
2021/12/09 11:03:26;;;;;;;7.43;4.70;;;13.60;72.80;;;;;;4897649;29;20935;-73
2021/12/09 11:06:05;;;;;;;5.63;5.07;;;13.50;73.80;;;;;;4896807;29;20479;-73
2021/12/09 11:08:46;;;;;;;6.87;5.60;;;13.20;74.50;;;;;;4897385;29;20463;-73
2021/12/09 11:11:37;;;;;;;5.43;4.90;;;13.10;75.90;;;;;;4897320;29;20416;-73
2021/12/09 11:14:03;;;;;;;5.57;5.07;;;13.10;75.90;;;;;;4897240;29;20389;-73
2021/12/09 11:16:56;;;;;;;6.50;5.43;;;13.10;76.10;;;;;;4880707;29;20979;-74
2021/12/09 11:19:34;;;;;;;6.77;6.20;;;13.20;76.10;;;;;;4891624;29;20191;-73
2021/12/09 11:22:06;;;;;;;5.27;4.87;;;12.90;75.60;;;;;;4896757;29;20415;-74
2021/12/09 11:24:37;;;;;;;7.63;5.07;;;12.70;76.00;;;;;;4880624;29;20475;-73
2021/12/09 11:27:14;;;;;;;4.73;4.33;;;12.70;78.10;;;;;;4896967;29;20500;-73
2021/12/09 11:29:45;;;;;;;5.97;5.43;;;12.80;77.10;;;;;;4896648;29;20506;-74
2021/12/09 11:35:11;;;;;;;5.97;5.20;;;12.60;79.70;;;;;;4896493;29;20467;-73
2021/12/09 11:37:46;;;;;;;8.50;7.57;;;12.60;80.20;;;;;;4896778;29;20880;-80
2021/12/09 11:43:06;;;;;;;6.70;4.80;;;12.50;76.80;;;;;;4895014;29;20436;-73
2021/12/09 11:45:44;;;;;;;6.60;6.00;;;12.20;81.20;;;;;;4896940;29;20874;-74
2021/12/09 11:48:11;;;;;;;6.07;5.47;;;12.40;79.90;;;;;;4897150;29;20910;-73
2021/12/09 11:50:40;;;;;;;6.17;5.60;;;12.50;79.90;;;;;;4896931;29;20569;-79
2021/12/09 11:53:10;;;;;;;6.30;5.40;;;12.50;80.30;;;;;;4897194;29;20881;-73
2021/12/09 11:55:41;;;;;;;7.13;5.40;;;12.80;83.90;;;;;;4897127;29;20423;-73
2021/12/09 11:58:18;;;;;;;7.67;6.07;;;12.90;80.50;;;;;;4897066;29;20915;-73
2021/12/09 12:18:19;;;;;;;6.30;5.70;;;11.70;81.20;;;;;;4895663;29;20927;-73
2021/12/09 12:20:55;;;;;;;6.60;6.10;;;11.40;83.70;;;;;;4895955;29;20429;-73
2021/12/09 12:35:04;;;;;;;7.90;6.13;;;11.10;85.30;;;;;;4900238;29;20410;-73
2021/12/09 12:40:16;;;;;;;7.73;6.20;;;10.80;86.30;;;;;;4900473;29;20425;-73
2021/12/09 12:43:00;;;;;;;6.80;5.77;;;10.80;86.70;;;;;;4899541;29;20418;-80
2021/12/09 12:46:06;;;;;;;7.93;6.30;;;10.90;87.40;;;;;;4900089;29;20407;-73
2021/12/09 12:51:43;;;;;;;6.20;5.47;;;11.50;86.20;;;;;;4899170;29;20425;-73
2021/12/09 12:54:20;;;;;;;5.30;4.80;;;11.80;84.40;;;;;;4896305;29;20521;-73
2021/12/09 12:56:54;;;;;;;7.70;6.37;;;11.80;85.50;;;;;;4899131;29;20495;-74
2021/12/09 12:59:23;;;;;;;8.23;6.20;;;11.80;85.30;;;;;;4883121;29;20416;-73
2021/12/09 13:02:03;;;;;;;7.90;6.07;;;12.10;87.80;;;;;;4882088;29;20433;-74
2021/12/09 13:04:57;;;;;;;6.60;5.37;;;11.90;81.90;;;;;;4879640;29;20471;-73
2021/12/09 13:08:40;;;;;;;7.73;5.30;;;12.20;85.60;;;;;;4880981;29;20459;-73
2021/12/09 13:13:16;;;;;;;5.43;5.03;;;11.50;81.70;;;;;;4880206;29;20508;-73
2021/12/09 13:16:20;;;;;;;6.50;5.90;;;11.30;82.70;;;;;;4878922;29;20452;-75
2021/12/09 13:21:35;;;;;;;8.10;6.13;;;10.50;83.70;;;;;;4881226;29;20465;-73
2021/12/09 13:24:20;;;;;;;6.10;5.60;;;10.30;85.90;;;;;;4880661;29;20422;-72
2021/12/09 13:27:06;;;;;;;5.50;5.00;;;10.20;87.00;;;;;;4879961;29;20426;-78
2021/12/09 13:32:24;;;;;;;7.00;5.57;;;9.80;89.00;;;;;;4878527;29;20543;-73
2021/12/09 13:35:05;;;;;;;5.60;5.00;;;9.60;90.20;;;;;;4880257;29;20496;-73
2021/12/09 13:45:46;;;;;;;4.53;4.07;;;9.20;90.80;;;;;;4872669;29;20449;-72
2021/12/09 13:46:15;;;;;;;8.53;4.90;;;9.10;91.90;;;;;;4879998;29;20420;-73
2021/12/09 13:48:46;;;;;;;5.90;5.00;;;9.00;92.40;;;;;;4880707;29;20463;-72
2021/12/09 13:54:25;;;;;;;5.33;4.70;;;8.90;92.70;;;;;;4879437;29;20409;-72
2021/12/09 13:57:04;;;;;;;6.80;6.30;;;8.80;92.60;;;;;;4880020;29;20931;-73
2021/12/09 13:59:34;;;;;;;5.80;4.50;;;8.70;93.70;;;;;;4880442;29;20416;-73
2021/12/09 14:02:12;;;;;;;6.27;4.50;;;8.70;93.70;;;;;;4879814;29;20439;-72
2021/12/09 14:04:38;;;;;;;6.40;4.80;;;8.60;93.80;;;;;;4895723;29;20861;-72
2021/12/09 14:07:16;;;;;;;5.53;4.60;;;8.70;94.10;;;;;;4898581;29;20460;-73
2021/12/09 14:09:45;;;;;;;5.47;4.53;;;8.50;94.30;;;;;;4899073;29;20431;-72
2021/12/09 14:12:11;;;;;;;4.90;4.50;;;8.60;94.60;;;;;;4898646;29;20892;-73